createdAt,value
2023-05-12T00:01:30.952Z,99214.69
2023-05-12T00:03:57.739Z,99217.06
2023-05-12T00:06:24.475Z,99215.47
2023-05-12T00:08:51.149Z,99221.78
2023-05-12T00:11:17.824Z,99212.72
2023-05-12T00:13:44.433Z,99208.00
2023-05-12T00:16:11.183Z,99209.97
2023-05-12T00:18:37.754Z,99207.59
2023-05-12T00:21:04.748Z,99195.22
2023-05-12T00:23:31.281Z,99210.63
2023-05-12T00:25:57.812Z,99204.34
2023-05-12T00:28:24.515Z,99207.47
2023-05-12T00:30:51.045Z,99211.38
2023-05-12T00:33:17.562Z,99196.38
2023-05-12T00:35:45.705Z,99203.47
2023-05-12T00:38:13.073Z,99201.09
2023-05-12T00:40:40.723Z,99187.38
2023-05-12T00:43:07.444Z,99190.13
2023-05-12T00:45:34.121Z,99189.28
2023-05-12T00:48:00.743Z,99199.84
2023-05-12T00:50:27.921Z,99195.53
2023-05-12T00:52:54.651Z,99189.59
2023-05-12T00:55:21.631Z,99200.22
2023-05-12T00:57:48.168Z,99191.56
2023-05-12T01:00:15.010Z,99193.13
2023-05-12T01:02:41.960Z,99194.34
2023-05-12T01:05:10.025Z,99195.16
2023-05-12T01:07:37.679Z,99196.34
2023-05-12T01:10:04.500Z,99199.81
2023-05-12T01:12:32.415Z,99194.59
2023-05-12T01:14:59.324Z,99196.56
2023-05-12T01:17:33.354Z,99205.97
2023-05-12T01:20:06.122Z,99206.34
2023-05-12T01:22:33.833Z,99207.88
2023-05-12T01:25:11.706Z,99212.56
2023-05-12T01:27:40.501Z,99215.28
2023-05-12T01:30:08.589Z,99206.22
2023-05-12T01:32:36.588Z,99219.56
2023-05-12T01:35:03.194Z,99217.91
2023-05-12T01:37:29.759Z,99211.50
2023-05-12T01:39:56.270Z,99216.59
2023-05-12T01:42:22.829Z,99209.84
2023-05-12T01:44:49.365Z,99203.53
2023-05-12T01:47:16.116Z,99210.91
2023-05-12T01:49:42.851Z,99206.50
2023-05-12T01:52:09.402Z,99205.72
2023-05-12T01:54:36.106Z,99200.22
2023-05-12T01:57:02.707Z,99215.09
2023-05-12T01:59:29.271Z,99200.94
2023-05-12T02:01:55.826Z,99207.16
2023-05-12T02:04:22.616Z,99198.47
2023-05-12T02:06:49.104Z,99201.59
2023-05-12T02:09:15.658Z,99191.34
2023-05-12T02:11:42.177Z,99197.66
2023-05-12T02:14:08.774Z,99194.88
2023-05-12T02:16:35.323Z,99203.53
2023-05-12T02:19:01.904Z,99208.63
2023-05-12T02:21:28.544Z,99201.50
2023-05-12T02:23:56.249Z,99201.50
2023-05-12T02:26:22.862Z,99207.00
2023-05-12T02:28:49.383Z,99209.34
2023-05-12T02:31:15.932Z,99203.84
2023-05-12T02:33:42.514Z,99200.56
2023-05-12T02:36:09.195Z,99204.91
2023-05-12T02:38:36.391Z,99196.25
2023-05-12T02:41:02.938Z,99203.25
2023-05-12T02:43:29.440Z,99202.88
2023-05-12T02:45:55.984Z,99191.81
2023-05-12T02:48:22.675Z,99188.63
2023-05-12T02:50:49.181Z,99195.00
2023-05-12T02:53:15.721Z,99194.56
2023-05-12T02:55:42.247Z,99186.31
2023-05-12T02:58:08.912Z,99198.47
2023-05-12T03:00:35.576Z,99195.31
2023-05-12T03:03:02.318Z,99187.06
2023-05-12T03:05:28.884Z,99180.38
2023-05-12T03:07:55.447Z,99202.38
2023-05-12T03:10:22.789Z,99190.16
2023-05-12T03:12:49.460Z,99198.78
2023-05-12T03:15:16.129Z,99196.03
2023-05-12T03:17:42.716Z,99207.38
2023-05-12T03:20:09.713Z,99200.28
2023-05-12T03:22:36.338Z,99191.22
2023-05-12T03:25:04.903Z,99206.59
2023-05-12T03:27:35.133Z,99190.84
2023-05-12T03:30:02.230Z,99195.94
2023-05-12T03:32:28.850Z,99208.09
2023-05-12T03:34:55.442Z,99194.34
2023-05-12T03:37:22.158Z,99204.19
2023-05-12T03:39:48.668Z,99191.22
2023-05-12T03:42:15.495Z,99193.97
2023-05-12T03:44:42.645Z,99197.16
2023-05-12T03:47:09.284Z,99202.66
2023-05-12T03:49:35.875Z,99197.16
2023-05-12T03:52:02.387Z,99198.78
2023-05-12T03:54:28.961Z,99199.91
2023-05-12T03:56:55.545Z,99204.63
2023-05-12T03:59:22.040Z,99200.63
2023-05-12T04:01:48.609Z,99192.38
2023-05-12T04:04:15.196Z,99194.69
2023-05-12T04:06:41.864Z,99196.72
2023-05-12T04:09:08.417Z,99207.38
2023-05-12T04:11:34.921Z,99202.22
2023-05-12T04:14:01.418Z,99204.97
2023-05-12T04:16:28.324Z,99187.69
2023-05-12T04:18:57.750Z,99209.34
2023-05-12T04:21:24.365Z,99205.41
2023-05-12T04:23:53.812Z,99206.66
2023-05-12T04:26:20.815Z,99214.91
2023-05-12T04:28:47.854Z,99220.06
2023-05-12T04:31:14.418Z,99208.31
2023-05-12T04:33:40.949Z,99217.78
2023-05-12T04:36:07.841Z,99221.00
2023-05-12T04:38:34.466Z,99217.44
2023-05-12T04:41:01.255Z,99226.50
2023-05-12T04:45:59.818Z,99229.38
2023-05-12T04:48:27.261Z,99230.16
2023-05-12T04:50:53.812Z,99228.16
2023-05-12T04:53:20.403Z,99232.06
2023-05-12T04:55:47.119Z,99230.09
2023-05-12T04:58:13.905Z,99230.44
2023-05-12T05:00:40.787Z,99224.94
2023-05-12T05:03:07.499Z,99229.72
2023-05-12T05:05:34.234Z,99229.31
2023-05-12T05:08:01.638Z,99236.41
2023-05-12T05:10:28.300Z,99227.34
2023-05-12T05:12:54.808Z,99231.25
2023-05-12T05:15:21.711Z,99233.19
2023-05-12T05:17:49.680Z,99232.44
2023-05-12T05:20:17.102Z,99224.19
2023-05-12T05:22:44.006Z,99224.94
2023-05-12T05:25:11.119Z,99230.53
2023-05-12T05:27:38.877Z,99238.50
2023-05-12T05:30:09.327Z,99244.50
2023-05-12T05:32:40.426Z,99235.09
2023-05-12T05:35:08.347Z,99240.31
2023-05-12T05:37:35.080Z,99241.06
2023-05-12T05:40:01.674Z,99248.84
2023-05-12T05:42:28.234Z,99244.09
2023-05-12T05:44:54.752Z,99251.88
2023-05-12T05:47:21.278Z,99252.69
2023-05-12T05:49:47.818Z,99249.22
2023-05-12T05:52:14.379Z,99252.41
2023-05-12T05:54:40.939Z,99248.13
2023-05-12T05:57:07.447Z,99255.78
2023-05-12T05:59:34.074Z,99257.78
2023-05-12T06:02:00.783Z,99260.03
2023-05-12T06:04:27.792Z,99262.78
2023-05-12T06:06:54.393Z,99266.78
2023-05-12T06:09:21.054Z,99258.41
2023-05-12T06:11:47.583Z,99263.53
2023-05-12T06:14:14.163Z,99268.00
2023-05-12T06:16:40.699Z,99267.63
2023-05-12T06:19:07.359Z,99274.38
2023-05-12T06:21:33.997Z,99275.81
2023-05-12T06:24:00.666Z,99272.31
2023-05-12T06:26:27.169Z,99276.69
2023-05-12T06:28:53.716Z,99267.63
2023-05-12T06:31:20.348Z,99270.16
2023-05-12T06:33:47.006Z,99270.88
2023-05-12T06:36:13.681Z,99277.09
2023-05-12T06:38:40.209Z,99275.53
2023-05-12T06:41:06.869Z,99282.47
2023-05-12T06:43:33.420Z,99280.16
2023-05-12T06:45:59.993Z,99278.75
2023-05-12T06:48:26.982Z,99280.44
2023-05-12T06:50:53.996Z,99280.28
2023-05-12T06:53:20.971Z,99286.59
2023-05-12T06:55:48.510Z,99291.50
2023-05-12T06:58:15.049Z,99285.28
2023-05-12T07:00:41.556Z,99284.56
2023-05-12T07:03:10.294Z,99293.25
2023-05-12T07:05:37.271Z,99285.53
2023-05-12T07:08:04.097Z,99285.03
2023-05-12T07:10:30.875Z,99283.53
2023-05-12T07:12:57.467Z,99277.72
2023-05-12T07:15:24.046Z,99290.66
2023-05-12T07:17:50.746Z,99279.38
2023-05-12T07:20:18.010Z,99288.75
2023-05-12T07:22:44.512Z,99284.16
2023-05-12T07:25:11.641Z,99288.13
2023-05-12T07:27:38.265Z,99294.22
2023-05-12T07:30:06.882Z,99297.88
2023-05-12T07:32:33.639Z,99296.34
2023-05-12T07:35:00.268Z,99292.38
2023-05-12T07:37:26.859Z,99279.31
2023-05-12T07:39:53.369Z,99296.47
2023-05-12T07:42:19.913Z,99284.41
2023-05-12T07:44:46.521Z,99291.88
2023-05-12T07:47:13.102Z,99294.72
2023-05-12T07:49:39.785Z,99299.03
2023-05-12T07:52:06.348Z,99304.97
2023-05-12T07:54:32.940Z,99300.13
2023-05-12T07:56:59.464Z,99291.78
2023-05-12T07:59:26.057Z,99299.47
2023-05-12T08:01:54.091Z,99296.28
2023-05-12T08:04:20.708Z,99304.81
2023-05-12T08:06:47.283Z,99313.84
2023-05-12T08:09:13.860Z,99314.63
2023-05-12T08:11:40.485Z,99315.44
2023-05-12T08:14:07.004Z,99308.78
2023-05-12T08:16:33.609Z,99307.72
2023-05-12T08:19:00.425Z,99311.78
2023-05-12T08:21:28.700Z,99326.41
2023-05-12T08:23:55.518Z,99313.44
2023-05-12T08:26:22.569Z,99319.16
2023-05-12T08:28:49.064Z,99317.06
2023-05-12T08:31:15.654Z,99317.56
2023-05-12T08:33:42.330Z,99319.44
2023-05-12T08:36:08.980Z,99315.78
2023-05-12T08:38:37.075Z,99310.00
2023-05-12T08:41:37.327Z,99333.41
2023-05-12T08:44:05.420Z,99328.34
2023-05-12T08:46:32.424Z,99333.84
2023-05-12T08:49:02.115Z,99328.81
2023-05-12T08:51:31.577Z,99329.97
2023-05-12T08:53:58.514Z,99324.84
2023-05-12T08:58:56.444Z,99333.53
2023-05-12T09:01:24.756Z,99332.69
2023-05-12T09:03:53.134Z,99331.00
2023-05-12T09:06:20.169Z,99343.13
2023-05-12T09:08:46.955Z,99337.19
2023-05-12T09:11:13.875Z,99346.59
2023-05-12T09:14:00.322Z,99345.81
2023-05-12T09:16:30.222Z,99348.59
2023-05-12T09:18:58.987Z,99354.09
2023-05-12T09:21:26.570Z,99348.19
2023-05-12T09:24:06.709Z,99355.06
2023-05-12T09:26:51.560Z,99356.91
2023-05-12T09:29:30.664Z,99362.44
2023-05-12T09:31:59.597Z,99356.88
2023-05-12T09:34:35.661Z,99355.16
2023-05-12T09:37:05.409Z,99368.31
2023-05-12T09:39:32.597Z,99363.84
2023-05-12T09:41:59.324Z,99363.84
2023-05-12T09:44:26.406Z,99370.22
2023-05-12T09:46:52.974Z,99375.81
2023-05-12T09:49:28.030Z,99370.59
2023-05-12T09:51:58.818Z,99377.97
2023-05-12T09:54:32.043Z,99366.66
2023-05-12T09:57:01.471Z,99362.84
2023-05-12T09:59:32.742Z,99371.81
2023-05-12T10:02:01.251Z,99372.91
2023-05-12T10:04:30.065Z,99371.91
2023-05-12T10:06:58.437Z,99366.78
2023-05-12T10:09:34.209Z,99376.59
2023-05-12T10:12:03.124Z,99377.00
2023-05-12T10:14:31.288Z,99370.25
2023-05-12T10:16:59.263Z,99375.75
2023-05-12T10:19:26.937Z,99370.81
2023-05-12T10:21:55.490Z,99376.00
2023-05-12T10:24:22.181Z,99374.44
2023-05-12T10:26:49.520Z,99374.88
2023-05-12T10:29:16.810Z,99369.44
2023-05-12T10:31:45.389Z,99372.66
2023-05-12T10:34:18.917Z,99374.63
2023-05-12T10:36:50.218Z,99369.16
2023-05-12T10:39:17.217Z,99371.63
2023-05-12T10:41:44.022Z,99375.56
2023-05-12T10:44:10.951Z,99386.34
2023-05-12T10:46:37.805Z,99389.88
2023-05-12T10:49:08.982Z,99387.69
2023-05-12T10:51:59.336Z,99384.25
2023-05-12T10:54:26.053Z,99381.44
2023-05-12T10:56:57.646Z,99395.53
2023-05-12T10:59:25.582Z,99389.28
2023-05-12T11:02:03.279Z,99389.38
2023-05-12T11:04:55.878Z,99398.47
2023-05-12T11:07:26.642Z,99402.06
2023-05-12T11:09:59.080Z,99399.31
2023-05-12T11:12:32.699Z,99400.53
2023-05-12T11:15:01.470Z,99403.56
2023-05-12T11:17:28.259Z,99405.44
2023-05-12T11:19:55.620Z,99412.47
2023-05-12T11:22:23.445Z,99413.16
2023-05-12T11:24:52.696Z,99411.06
2023-05-12T11:27:22.687Z,99412.41
2023-05-12T11:30:00.744Z,99409.72
2023-05-12T11:32:27.659Z,99409.38
2023-05-12T11:34:54.338Z,99413.28
2023-05-12T11:37:21.602Z,99403.47
2023-05-12T11:39:48.551Z,99415.00
2023-05-12T11:42:17.588Z,99409.41
2023-05-12T11:44:49.669Z,99421.13
2023-05-12T11:47:19.812Z,99412.84
2023-05-12T11:49:50.198Z,99425.09
2023-05-12T11:52:17.880Z,99416.03
2023-05-12T11:54:51.649Z,99419.88
2023-05-12T11:57:36.044Z,99428.88
2023-05-12T12:00:06.869Z,99425.03
2023-05-12T12:02:34.143Z,99421.72
2023-05-12T12:05:00.957Z,99424.03
2023-05-12T12:07:37.034Z,99434.94
2023-05-12T12:10:21.855Z,99434.41
2023-05-12T12:12:48.438Z,99431.00
2023-05-12T12:15:14.962Z,99422.53
2023-05-12T12:17:41.532Z,99427.06
2023-05-12T12:20:09.338Z,99423.56
2023-05-12T12:22:36.179Z,99429.31
2023-05-12T12:25:03.944Z,99428.97
2023-05-12T12:27:30.876Z,99423.75
2023-05-12T12:29:57.484Z,99423.31
2023-05-12T12:32:24.126Z,99427.16
2023-05-12T12:34:50.713Z,99426.16
2023-05-12T12:37:17.707Z,99425.44
2023-05-12T12:39:44.289Z,99432.53
2023-05-12T12:42:10.818Z,99434.03
2023-05-12T12:44:37.399Z,99430.88
2023-05-12T12:47:04.716Z,99419.75
2023-05-12T12:49:31.333Z,99426.63
2023-05-12T12:51:57.937Z,99428.38
2023-05-12T12:54:27.198Z,99426.50
2023-05-12T12:56:55.390Z,99421.63
2023-05-12T12:59:21.994Z,99425.56
2023-05-12T13:01:48.696Z,99428.53
2023-05-12T13:04:15.309Z,99430.72
2023-05-12T13:06:41.816Z,99428.25
2023-05-12T13:09:09.144Z,99431.44
2023-05-12T13:11:35.900Z,99429.06
2023-05-12T13:14:02.496Z,99418.81
2023-05-12T13:16:30.070Z,99424.94
2023-05-12T13:18:56.887Z,99429.50
2023-05-12T13:21:23.487Z,99422.00
2023-05-12T13:23:50.072Z,99426.38
2023-05-12T13:26:16.857Z,99423.09
2023-05-12T13:28:43.528Z,99419.50
2023-05-12T13:31:10.267Z,99431.66
2023-05-12T13:33:36.803Z,99422.31
2023-05-12T13:36:03.497Z,99424.00
2023-05-12T13:38:30.876Z,99425.50
2023-05-12T13:40:57.492Z,99420.94
2023-05-12T13:43:24.030Z,99430.38
2023-05-12T13:45:50.998Z,99424.84
2023-05-12T13:48:17.913Z,99422.00
2023-05-12T13:50:44.458Z,99429.28
2023-05-12T13:53:12.578Z,99429.28
2023-05-12T13:55:40.733Z,99427.50
2023-05-12T13:58:07.587Z,99423.97
2023-05-12T14:00:34.187Z,99434.53
2023-05-12T14:03:00.847Z,99431.25
2023-05-12T14:05:27.530Z,99444.75
2023-05-12T14:07:54.074Z,99447.06
2023-05-12T14:10:20.629Z,99454.75
2023-05-12T14:12:48.078Z,99465.66
2023-05-12T14:15:26.528Z,99459.06
2023-05-12T14:18:01.342Z,99458.19
2023-05-12T14:20:27.896Z,99458.28
2023-05-12T14:22:54.551Z,99458.91
2023-05-12T14:25:21.558Z,99456.88
2023-05-12T14:27:48.217Z,99475.44
2023-05-12T14:30:14.973Z,99462.56
2023-05-12T14:32:41.584Z,99464.25
2023-05-12T14:35:10.312Z,99467.75
2023-05-12T14:37:37.442Z,99471.69
2023-05-12T14:40:04.831Z,99473.63
2023-05-12T14:42:32.386Z,99473.56
2023-05-12T14:44:59.428Z,99463.81
2023-05-12T14:47:26.028Z,99472.41
2023-05-12T14:49:52.701Z,99462.19
2023-05-12T14:52:19.240Z,99469.66
2023-05-12T14:54:45.772Z,99467.59
2023-05-12T14:57:13.566Z,99474.63
2023-05-12T14:59:40.148Z,99472.69
2023-05-12T15:02:07.485Z,99470.28
2023-05-12T15:04:34.064Z,99471.81
2023-05-12T15:07:00.694Z,99476.88
2023-05-12T15:09:27.213Z,99470.13
2023-05-12T15:11:53.813Z,99472.50
2023-05-12T15:14:20.443Z,99475.28
2023-05-12T15:16:47.375Z,99467.88
2023-05-12T15:19:14.178Z,99479.78
2023-05-12T15:21:41.934Z,99469.91
2023-05-12T15:24:08.620Z,99477.38
2023-05-12T15:26:38.238Z,99476.59
2023-05-12T15:29:06.350Z,99474.19
2023-05-12T15:31:33.031Z,99481.13
2023-05-12T15:34:00.336Z,99475.53
2023-05-12T15:36:26.875Z,99479.91
2023-05-12T15:38:53.565Z,99477.16
2023-05-12T15:41:20.114Z,99480.34
2023-05-12T15:43:46.643Z,99480.25
2023-05-12T15:46:13.220Z,99474.63
2023-05-12T15:48:39.894Z,99476.94
2023-05-12T15:51:06.778Z,99477.28
2023-05-12T15:53:33.638Z,99479.16
2023-05-12T15:56:01.478Z,99477.56
2023-05-12T15:58:28.660Z,99479.59
2023-05-12T16:00:55.883Z,99476.94
2023-05-12T16:03:23.896Z,99479.34
2023-05-12T16:05:50.870Z,99476.22
2023-05-12T16:08:17.616Z,99484.84
2023-05-12T16:10:44.495Z,99485.19
2023-05-12T16:13:11.104Z,99474.63
2023-05-12T16:15:37.791Z,99484.75
2023-05-12T16:18:05.500Z,99475.63
2023-05-12T16:20:33.719Z,99476.75
2023-05-12T16:23:00.305Z,99477.47
2023-05-12T16:25:26.835Z,99483.78
2023-05-12T16:27:53.571Z,99491.59
2023-05-12T16:30:20.577Z,99491.59
2023-05-12T16:32:47.543Z,99489.19
2023-05-12T16:35:14.563Z,99487.88
2023-05-12T16:37:41.432Z,99493.47
2023-05-12T16:40:09.483Z,99497.00
2023-05-12T16:42:36.492Z,99488.28
2023-05-12T16:45:03.201Z,99492.22
2023-05-12T16:47:29.877Z,99491.94
2023-05-12T16:49:58.106Z,99494.34
2023-05-12T16:52:25.640Z,99500.97
2023-05-12T16:54:53.188Z,99500.00
2023-05-12T16:57:20.264Z,99497.56
2023-05-12T16:59:48.517Z,99501.00
2023-05-12T17:02:15.530Z,99500.56
2023-05-12T17:04:42.193Z,99502.84
2023-05-12T17:07:09.640Z,99495.66
2023-05-12T17:09:36.438Z,99503.09
2023-05-12T17:12:04.560Z,99499.03
2023-05-12T17:14:31.351Z,99497.09
2023-05-12T17:16:58.094Z,99507.28
2023-05-12T17:19:24.727Z,99506.84
2023-05-12T17:21:51.397Z,99498.94
2023-05-12T17:24:18.010Z,99502.47
2023-05-12T17:26:44.960Z,99500.88
2023-05-12T17:29:11.767Z,99504.78
2023-05-12T17:31:38.743Z,99499.63
2023-05-12T17:34:05.341Z,99498.38
2023-05-12T17:36:32.049Z,99499.13
2023-05-12T17:38:58.761Z,99514.81
2023-05-12T17:41:27.104Z,99503.00
2023-05-12T17:43:55.685Z,99504.63
2023-05-12T17:46:23.091Z,99517.88
2023-05-12T17:48:49.809Z,99515.59
2023-05-12T17:51:17.060Z,99503.44
2023-05-12T17:53:43.869Z,99514.88
2023-05-12T17:56:10.456Z,99516.84
2023-05-12T17:58:37.094Z,99524.75
2023-05-12T18:01:03.807Z,99517.63
2023-05-12T18:03:30.497Z,99513.75
2023-05-12T18:05:57.072Z,99518.81
2023-05-12T18:08:23.618Z,99519.59
2023-05-12T18:10:50.405Z,99514.88
2023-05-12T18:13:17.039Z,99514.88
2023-05-12T18:15:43.572Z,99517.19
2023-05-12T18:18:10.730Z,99522.69
2023-05-12T18:20:37.910Z,99515.25
2023-05-12T18:23:04.641Z,99518.81
2023-05-12T18:25:31.381Z,99521.09
2023-05-12T18:27:57.993Z,99530.94
2023-05-12T18:30:24.534Z,99526.13
2023-05-12T18:32:51.159Z,99528.00
2023-05-12T18:35:18.081Z,99533.06
2023-05-12T18:37:45.124Z,99534.63
2023-05-12T18:40:12.207Z,99532.63
2023-05-12T18:42:38.894Z,99538.00
2023-05-12T18:45:06.117Z,99541.09
2023-05-12T18:47:33.527Z,99543.06
2023-05-12T18:50:00.378Z,99546.94
2023-05-12T18:52:26.953Z,99544.31
2023-05-12T18:54:53.521Z,99542.00
2023-05-12T18:57:20.289Z,99554.94
2023-05-12T18:59:46.813Z,99548.63
2023-05-12T19:02:13.378Z,99560.78
2023-05-12T19:04:39.980Z,99556.44
2023-05-12T19:07:09.839Z,99557.34
2023-05-12T19:09:36.982Z,99564.44
2023-05-12T19:12:05.981Z,99556.09
2023-05-12T19:14:32.908Z,99556.88
2023-05-12T19:16:59.518Z,99563.97
2023-05-12T19:19:26.315Z,99565.94
2023-05-12T19:21:52.931Z,99558.94
2023-05-12T19:24:19.562Z,99570.38
2023-05-12T19:26:46.452Z,99561.00
2023-05-12T19:29:13.262Z,99570.84
2023-05-12T19:31:39.986Z,99576.59
2023-05-12T19:34:07.216Z,99573.38
2023-05-12T19:36:33.992Z,99582.41
2023-05-12T19:39:01.085Z,99577.72
2023-05-12T19:41:29.743Z,99574.97
2023-05-12T19:43:56.454Z,99576.41
2023-05-12T19:46:23.236Z,99582.22
2023-05-12T19:48:52.687Z,99577.16
2023-05-12T19:51:19.275Z,99582.59
2023-05-12T19:53:46.428Z,99590.13
2023-05-12T19:56:12.980Z,99595.03
2023-05-12T19:58:39.547Z,99595.22
2023-05-12T20:01:06.086Z,99586.28
2023-05-12T20:03:32.726Z,99596.09
2023-05-12T20:05:59.365Z,99588.09
2023-05-12T20:08:25.915Z,99591.66
2023-05-12T20:10:52.426Z,99588.47
2023-05-12T20:13:19.058Z,99590.78
2023-05-12T20:15:45.703Z,99596.28
2023-05-12T20:18:14.643Z,99588.47
2023-05-12T20:20:42.369Z,99593.97
2023-05-12T20:23:09.056Z,99593.28
2023-05-12T20:25:36.209Z,99592.03
2023-05-12T20:28:03.034Z,99587.84
2023-05-12T20:30:29.679Z,99590.34
2023-05-12T20:32:56.318Z,99591.16
2023-05-12T20:35:23.387Z,99586.09
2023-05-12T20:37:50.586Z,99588.16
2023-05-12T20:40:17.275Z,99589.53
2023-05-12T20:42:48.989Z,99587.09
2023-05-12T20:45:16.057Z,99585.16
2023-05-12T20:47:42.826Z,99589.16
2023-05-12T20:50:09.981Z,99587.66
2023-05-12T20:52:37.296Z,99584.91
2023-05-12T20:55:04.308Z,99588.09
2023-05-12T20:57:31.012Z,99586.16
2023-05-12T20:59:57.578Z,99595.91
2023-05-12T21:02:26.045Z,99596.28
2023-05-12T21:04:53.254Z,99590.84
2023-05-12T21:07:20.368Z,99596.28
2023-05-12T21:09:47.846Z,99587.34
2023-05-12T21:12:14.609Z,99588.53
2023-05-12T21:14:43.016Z,99596.59
2023-05-12T21:17:10.911Z,99597.06
2023-05-12T21:19:38.554Z,99597.06
2023-05-12T21:22:06.717Z,99597.06
2023-05-12T21:24:33.620Z,99598.66
2023-05-12T21:27:04.094Z,99599.56
2023-05-12T21:29:31.589Z,99600.72
2023-05-12T21:31:58.154Z,99595.75
2023-05-12T21:34:24.792Z,99599.75
2023-05-12T21:36:51.546Z,99601.34
2023-05-12T21:39:18.118Z,99588.03
2023-05-12T21:41:44.702Z,99597.88
2023-05-12T21:44:11.517Z,99606.59
2023-05-12T21:46:38.371Z,99597.63
2023-05-12T21:49:05.061Z,99601.97
2023-05-12T21:51:33.151Z,99605.16
2023-05-12T21:54:00.224Z,99608.72
2023-05-12T21:56:26.881Z,99599.03
2023-05-12T21:58:53.496Z,99607.09
2023-05-12T22:01:20.234Z,99603.56
2023-05-12T22:03:46.898Z,99604.06
2023-05-12T22:06:13.520Z,99601.03
2023-05-12T22:08:40.081Z,99600.59
2023-05-12T22:11:06.664Z,99603.41
2023-05-12T22:13:33.315Z,99599.28
2023-05-12T22:16:00.132Z,99605.47
2023-05-12T22:18:27.488Z,99595.72
2023-05-12T22:20:54.112Z,99606.72
2023-05-12T22:23:20.661Z,99611.78
2023-05-12T22:25:47.241Z,99602.59
2023-05-12T22:28:13.812Z,99603.78
2023-05-12T22:30:41.652Z,99602.84
2023-05-12T22:33:08.272Z,99609.06
2023-05-12T22:35:34.834Z,99601.28
2023-05-12T22:38:01.421Z,99603.59
2023-05-12T22:40:27.982Z,99612.28
2023-05-12T22:42:54.826Z,99603.09
2023-05-12T22:45:21.381Z,99600.66
2023-05-12T22:47:47.908Z,99599.09
2023-05-12T22:50:14.466Z,99597.72
2023-05-12T22:52:40.973Z,99596.47
2023-05-12T22:55:07.757Z,99587.09
2023-05-12T22:57:34.301Z,99590.28
2023-05-12T23:00:00.821Z,99594.16
2023-05-12T23:02:27.389Z,99599.47
2023-05-12T23:04:53.925Z,99590.97
2023-05-12T23:07:20.481Z,99592.09
2023-05-12T23:09:47.007Z,99592.34
2023-05-12T23:12:13.589Z,99594.66
2023-05-12T23:14:40.169Z,99595.59
2023-05-12T23:17:06.928Z,99595.47
2023-05-12T23:19:33.521Z,99597.41
2023-05-12T23:22:00.138Z,99594.66
2023-05-12T23:24:26.704Z,99599.34
2023-05-12T23:26:53.291Z,99597.78
2023-05-12T23:29:19.821Z,99595.03
2023-05-12T23:31:46.471Z,99595.34
2023-05-12T23:34:13.051Z,99585.63
2023-05-12T23:36:39.695Z,99583.66
2023-05-12T23:39:06.280Z,99580.91
2023-05-12T23:41:34.005Z,99586.88
2023-05-12T23:44:00.669Z,99576.34
2023-05-12T23:46:27.248Z,99578.63
2023-05-12T23:48:57.012Z,99582.97
2023-05-12T23:51:24.176Z,99577.47
2023-05-12T23:53:50.932Z,99574.72
2023-05-12T23:56:17.522Z,99581.47
2023-05-12T23:58:44.254Z,99583.09
